Time;durP1;ratioP1;P1;durP2;ratioP2;P2;SDS_P1;SDS_P2;PMS_P1;PMS_P2;Temp;Humidity;BMP_temperature;BMP_pressure;BME280_temperature;BME280_humidity;BME280_pressure;Samples;Min_cycle;Max_cycle;Signal;HPM_P1;HPM_P2
2022/11/19 00:02:12;;;;;;;2.63;2.00;;;5.40;99.90;;;;;;5135274;27;20194;-73
2022/11/19 00:04:40;;;;;;;2.57;1.73;;;5.40;99.90;;;;;;5133490;27;20307;-76
2022/11/19 00:07:08;;;;;;;1.70;1.57;;;5.30;99.90;;;;;;5115628;28;20206;-78
2022/11/19 00:09:36;;;;;;;2.67;1.80;;;5.30;99.90;;;;;;5135306;28;20202;-75
2022/11/19 00:14:54;;;;;;;2.43;1.60;;;5.30;99.90;;;;;;5129672;27;20206;-77
2022/11/19 00:17:24;;;;;;;3.40;1.77;;;5.30;99.90;;;;;;5155719;27;20208;-74
2022/11/19 00:19:55;;;;;;;3.63;2.07;;;5.30;99.90;;;;;;5155816;27;20231;-72
2022/11/19 00:22:23;;;;;;;4.17;1.80;;;5.30;99.90;;;;;;5153674;27;20189;-76
2022/11/19 00:24:57;;;;;;;2.30;1.83;;;5.30;99.90;;;;;;5136555;27;20209;-76
2022/11/19 00:27:27;;;;;;;2.20;1.90;;;5.30;99.90;;;;;;5128624;27;20671;-78
2022/11/19 00:30:01;;;;;;;3.37;1.80;;;5.30;99.90;;;;;;5135475;27;20212;-78
2022/11/19 00:32:35;;;;;;;3.60;1.90;;;5.30;99.90;;;;;;5135472;27;20213;-78
2022/11/19 00:35:05;;;;;;;1.83;1.70;;;5.30;99.90;;;;;;5134152;27;20209;-79
2022/11/19 00:37:33;;;;;;;3.23;1.93;;;5.30;99.90;;;;;;5133569;27;20659;-77
2022/11/19 00:40:01;;;;;;;1.80;1.50;;;5.30;99.90;;;;;;5134542;27;20239;-76
2022/11/19 00:42:32;;;;;;;3.50;1.90;;;5.30;99.90;;;;;;5123742;27;20209;-76
2022/11/19 00:45:04;;;;;;;6.60;2.00;;;5.30;99.90;;;;;;5120612;27;20206;-77
2022/11/19 00:47:32;;;;;;;3.90;1.87;;;5.30;99.90;;;;;;5127531;27;20210;-79
2022/11/19 00:50:01;;;;;;;2.37;1.80;;;5.40;99.90;;;;;;5132271;27;20208;-79
2022/11/19 00:52:33;;;;;;;5.00;2.20;;;5.40;99.90;;;;;;5114167;27;20581;-79
2022/11/19 00:55:01;;;;;;;4.87;2.20;;;5.40;99.90;;;;;;5113843;28;20223;-78
2022/11/19 00:57:29;;;;;;;2.07;1.90;;;5.30;99.90;;;;;;5112612;28;20315;-79
2022/11/19 00:59:57;;;;;;;2.17;1.63;;;5.30;99.90;;;;;;5112478;28;20699;-79
2022/11/19 01:02:26;;;;;;;1.93;1.70;;;5.30;99.90;;;;;;5112532;28;20304;-77
2022/11/19 01:04:54;;;;;;;2.40;1.63;;;5.30;99.90;;;;;;5114095;28;20238;-77
2022/11/19 01:07:24;;;;;;;1.60;1.50;;;5.30;99.90;;;;;;5129914;27;20212;-78
2022/11/19 01:09:54;;;;;;;1.70;1.23;;;5.30;99.90;;;;;;5130663;27;20646;-77
2022/11/19 01:12:23;;;;;;;2.13;1.40;;;5.30;99.90;;;;;;5128970;27;20233;-80
2022/11/19 01:14:51;;;;;;;1.97;1.40;;;5.30;99.90;;;;;;5112857;27;20213;-78
2022/11/19 01:17:21;;;;;;;1.83;1.20;;;5.30;99.90;;;;;;5112812;27;20206;-78
2022/11/19 01:19:50;;;;;;;2.30;1.23;;;5.30;99.90;;;;;;5112304;28;20283;-77
2022/11/19 01:22:18;;;;;;;3.17;1.40;;;5.30;99.90;;;;;;5111881;28;20202;-78
2022/11/19 01:24:46;;;;;;;3.63;1.60;;;5.30;99.90;;;;;;5112791;28;20263;-79
2022/11/19 01:27:15;;;;;;;2.00;1.33;;;5.30;99.90;;;;;;5112909;28;20222;-78
2022/11/19 01:29:43;;;;;;;2.93;1.27;;;5.30;99.90;;;;;;5113015;28;20209;-78
2022/11/19 01:32:12;;;;;;;1.77;1.20;;;5.40;99.90;;;;;;5119980;27;20210;-78
2022/11/19 01:34:40;;;;;;;1.77;1.27;;;5.30;99.90;;;;;;5112155;28;20226;-78
2022/11/19 01:37:10;;;;;;;3.23;1.20;;;5.40;99.90;;;;;;5111973;28;20247;-78
2022/11/19 01:39:38;;;;;;;2.43;1.40;;;5.40;99.90;;;;;;5113199;28;20221;-79
2022/11/19 01:42:48;;;;;;;2.20;1.30;;;5.40;99.90;;;;;;5112210;28;20301;-80
2022/11/19 01:45:04;;;;;;;1.73;1.40;;;5.40;99.90;;;;;;5115985;27;20235;-76
2022/11/19 01:47:33;;;;;;;1.50;1.40;;;5.40;99.90;;;;;;5114030;27;20623;-78
2022/11/19 01:50:04;;;;;;;3.53;1.90;;;5.50;99.90;;;;;;5111221;27;20221;-74
2022/11/19 01:52:33;;;;;;;1.83;1.60;;;5.50;99.90;;;;;;5111786;28;20210;-74
2022/11/19 01:55:02;;;;;;;6.93;2.20;;;5.50;99.90;;;;;;5112399;28;20198;-78
2022/11/19 01:57:30;;;;;;;3.47;1.60;;;5.50;99.90;;;;;;5124463;28;20323;-78
2022/11/19 02:00:00;;;;;;;2.40;1.90;;;5.50;99.90;;;;;;5144978;27;20221;-80
2022/11/19 02:02:30;;;;;;;3.90;2.03;;;5.50;99.90;;;;;;5111955;27;20571;-78
2022/11/19 02:04:59;;;;;;;3.20;2.07;;;5.60;99.90;;;;;;5112418;28;20190;-75
2022/11/19 02:07:30;;;;;;;3.80;2.13;;;5.50;99.90;;;;;;5112051;27;20210;-79
2022/11/19 02:10:02;;;;;;;5.33;2.40;;;5.50;99.90;;;;;;5111797;28;20293;-79
2022/11/19 02:12:42;;;;;;;3.67;2.17;;;5.50;99.90;;;;;;5111133;28;20268;-79
2022/11/19 02:15:21;;;;;;;6.90;2.73;;;5.50;99.90;;;;;;5121253;28;20205;-78
2022/11/19 02:18:19;;;;;;;3.23;2.53;;;5.50;99.90;;;;;;5115474;28;20217;-75
2022/11/19 02:21:05;;;;;;;6.33;3.00;;;5.50;99.90;;;;;;5131003;27;20224;-78
2022/11/19 02:24:00;;;;;;;4.63;3.10;;;5.50;99.90;;;;;;5117376;27;20214;-79
2022/11/19 02:27:01;;;;;;;4.53;2.73;;;5.50;99.90;;;;;;5104348;28;20190;-79
2022/11/19 02:30:03;;;;;;;3.87;3.10;;;5.50;99.90;;;;;;5107269;28;20214;-79
2022/11/19 02:32:34;;;;;;;5.93;2.80;;;5.50;99.90;;;;;;5126039;27;20213;-78
2022/11/19 02:35:17;;;;;;;6.03;3.20;;;5.50;99.90;;;;;;5125273;27;20221;-80
2022/11/19 02:37:54;;;;;;;4.93;3.30;;;5.50;99.90;;;;;;5115370;28;20197;-76
2022/11/19 02:40:28;;;;;;;7.97;3.80;;;5.50;99.90;;;;;;5115036;28;20217;-78
2022/11/19 02:43:08;;;;;;;6.10;3.70;;;5.50;99.90;;;;;;5115933;27;20686;-78
2022/11/19 02:45:42;;;;;;;7.93;3.97;;;5.50;99.90;;;;;;5133994;27;20209;-78
2022/11/19 02:48:14;;;;;;;5.97;3.70;;;5.50;99.90;;;;;;5135160;27;20201;-80
2022/11/19 02:50:48;;;;;;;7.27;3.97;;;5.60;99.90;;;;;;5134815;27;20206;-76
2022/11/19 02:53:16;;;;;;;5.77;4.10;;;5.60;99.90;;;;;;5130655;27;20239;-76
2022/11/19 02:56:09;;;;;;;4.57;3.90;;;5.50;99.90;;;;;;5117124;28;20210;-77
2022/11/19 03:04:31;;;;;;;6.70;4.40;;;5.50;99.90;;;;;;5114794;27;20194;-77
2022/11/19 03:07:07;;;;;;;6.23;4.53;;;5.40;99.90;;;;;;5114163;27;20664;-79
2022/11/19 03:09:40;;;;;;;6.00;4.73;;;5.40;99.90;;;;;;5115225;28;20277;-79
2022/11/19 03:12:15;;;;;;;5.60;4.50;;;5.40;99.90;;;;;;5113859;27;20229;-79
2022/11/19 03:18:01;;;;;;;9.80;4.80;;;5.40;99.90;;;;;;5113988;27;20213;-78
2022/11/19 03:20:34;;;;;;;8.07;4.40;;;5.40;99.90;;;;;;5119098;27;20213;-77
2022/11/19 03:23:08;;;;;;;7.73;4.90;;;5.40;99.90;;;;;;5115757;27;20206;-78
2022/11/19 03:25:43;;;;;;;7.03;4.40;;;5.40;99.90;;;;;;5115698;28;20469;-78
2022/11/19 03:28:14;;;;;;;6.30;4.20;;;5.40;99.90;;;;;;5115168;28;20198;-78
2022/11/19 03:30:47;;;;;;;8.57;4.27;;;5.40;99.90;;;;;;5114856;28;20694;-78
2022/11/19 03:33:21;;;;;;;7.13;4.23;;;5.30;99.90;;;;;;5114915;28;20229;-80
2022/11/19 03:35:53;;;;;;;6.77;4.00;;;5.30;99.90;;;;;;5115336;28;20196;-78
2022/11/19 03:38:28;;;;;;;7.53;4.37;;;5.30;99.90;;;;;;5115207;28;20206;-77
2022/11/19 03:40:58;;;;;;;7.03;4.03;;;5.30;99.90;;;;;;5115200;28;20223;-78
2022/11/19 03:43:29;;;;;;;6.30;4.17;;;5.40;99.90;;;;;;5130210;27;20206;-78
2022/11/19 03:46:02;;;;;;;5.97;4.00;;;5.40;99.90;;;;;;5135912;27;20307;-78
2022/11/19 03:48:33;;;;;;;5.57;4.00;;;5.40;99.90;;;;;;5135632;27;20205;-78
2022/11/19 03:51:07;;;;;;;5.83;3.87;;;5.40;99.90;;;;;;5133115;27;20197;-79
2022/11/19 03:53:37;;;;;;;5.20;3.87;;;5.40;99.90;;;;;;5133619;27;20269;-75
2022/11/19 03:56:12;;;;;;;6.77;4.10;;;5.40;99.90;;;;;;5134352;27;20212;-77
2022/11/19 03:58:46;;;;;;;5.53;3.30;;;5.40;99.90;;;;;;5133356;27;20212;-78
2022/11/19 04:01:15;;;;;;;6.53;3.73;;;5.50;99.90;;;;;;5134205;27;20247;-78
2022/11/19 04:06:30;;;;;;;4.70;2.97;;;5.50;99.90;;;;;;5112269;27;20686;-78
2022/11/19 04:08:58;;;;;;;5.17;3.13;;;5.50;99.90;;;;;;5112925;27;20628;-78
2022/11/19 04:11:28;;;;;;;4.53;3.00;;;5.50;99.90;;;;;;5113260;28;20667;-76
2022/11/19 04:13:59;;;;;;;4.73;2.87;;;5.50;99.90;;;;;;5112436;27;20226;-78
2022/11/19 04:16:27;;;;;;;4.57;2.70;;;5.50;99.90;;;;;;5114160;27;20214;-78
2022/11/19 04:18:57;;;;;;;5.43;2.90;;;5.50;99.90;;;;;;5113681;28;20202;-76
2022/11/19 04:21:31;;;;;;;4.90;2.70;;;5.50;99.90;;;;;;5134536;27;20227;-77
2022/11/19 04:23:59;;;;;;;4.73;2.60;;;5.50;99.90;;;;;;5138569;27;20217;-79
2022/11/19 04:26:27;;;;;;;3.13;2.60;;;5.50;99.90;;;;;;5136625;27;20544;-75
2022/11/19 04:28:55;;;;;;;3.63;2.37;;;5.50;99.90;;;;;;5133490;27;20209;-78
2022/11/19 04:31:23;;;;;;;3.37;2.40;;;5.50;99.90;;;;;;5132950;27;20212;-77
2022/11/19 04:33:55;;;;;;;4.67;2.50;;;5.50;99.90;;;;;;5120081;27;20616;-78
2022/11/19 04:36:26;;;;;;;6.80;2.70;;;5.50;99.90;;;;;;5113422;28;20206;-79
2022/11/19 04:38:54;;;;;;;4.23;2.70;;;5.50;99.90;;;;;;5111459;27;20206;-79
2022/11/19 04:41:23;;;;;;;4.33;2.53;;;5.50;99.90;;;;;;5119542;27;20625;-78
2022/11/19 04:43:51;;;;;;;4.93;2.50;;;5.50;99.90;;;;;;5112158;28;20206;-79
2022/11/19 04:46:19;;;;;;;3.87;2.13;;;5.50;99.90;;;;;;5112083;28;20213;-79
2022/11/19 04:48:47;;;;;;;3.57;2.30;;;5.40;99.90;;;;;;5113311;28;20304;-79
2022/11/19 04:51:15;;;;;;;5.40;2.50;;;5.40;99.90;;;;;;5113093;28;20202;-77
2022/11/19 04:53:47;;;;;;;5.73;2.60;;;5.30;99.90;;;;;;5111131;28;20225;-78
2022/11/19 04:56:15;;;;;;;3.27;2.37;;;5.40;99.90;;;;;;5121489;27;20220;-75
2022/11/19 04:58:46;;;;;;;4.57;2.63;;;5.30;99.90;;;;;;5116490;27;20210;-76
2022/11/19 05:01:19;;;;;;;5.23;2.83;;;5.30;99.90;;;;;;5111748;27;20717;-78
2022/11/19 05:03:47;;;;;;;3.23;2.17;;;5.30;99.90;;;;;;5112679;28;20191;-76
2022/11/19 05:06:16;;;;;;;3.97;2.50;;;5.30;99.90;;;;;;5119539;27;20205;-79
2022/11/19 05:08:49;;;;;;;4.47;2.43;;;5.30;99.90;;;;;;5128732;27;20289;-75
2022/11/19 05:11:18;;;;;;;6.97;2.47;;;5.30;99.90;;;;;;5112574;27;20206;-77
2022/11/19 05:13:46;;;;;;;2.87;2.30;;;5.30;99.90;;;;;;5125489;27;20226;-79
2022/11/19 05:16:15;;;;;;;2.93;2.30;;;5.40;99.90;;;;;;5112098;27;20210;-80
2022/11/19 05:18:49;;;;;;;4.20;2.10;;;5.20;99.90;;;;;;5112280;28;20202;-78
2022/11/19 05:21:20;;;;;;;3.93;2.57;;;5.30;99.90;;;;;;5111388;28;20232;-76
2022/11/19 05:23:49;;;;;;;4.00;2.50;;;5.30;99.90;;;;;;5112760;28;20225;-77
2022/11/19 05:26:19;;;;;;;3.47;2.23;;;5.30;99.90;;;;;;5111829;28;20210;-78
2022/11/19 05:28:50;;;;;;;3.20;2.30;;;5.40;99.90;;;;;;5111682;27;20530;-79
2022/11/19 05:31:21;;;;;;;2.87;2.30;;;5.30;99.90;;;;;;5111808;28;20198;-77
2022/11/19 05:33:51;;;;;;;2.80;2.23;;;5.40;99.90;;;;;;5112393;28;20205;-77
2022/11/19 05:36:19;;;;;;;4.83;2.33;;;5.40;99.90;;;;;;5112716;28;20233;-80
2022/11/19 05:38:48;;;;;;;2.60;2.20;;;5.40;99.90;;;;;;5112423;28;20224;-78
2022/11/19 05:41:16;;;;;;;4.13;2.40;;;5.40;99.90;;;;;;5112524;28;20222;-78
2022/11/19 05:43:45;;;;;;;4.03;2.40;;;5.40;99.90;;;;;;5111038;28;20562;-79
2022/11/19 05:46:13;;;;;;;3.63;2.07;;;5.40;99.90;;;;;;5111347;28;20216;-79
2022/11/19 05:48:41;;;;;;;5.17;2.40;;;5.40;99.90;;;;;;5112735;28;20288;-80
2022/11/19 05:51:13;;;;;;;3.77;2.37;;;5.40;99.90;;;;;;5112942;28;20283;-79
2022/11/19 05:53:44;;;;;;;4.00;2.23;;;5.40;99.90;;;;;;5112482;28;20214;-79
2022/11/19 05:56:15;;;;;;;3.20;2.27;;;5.40;99.90;;;;;;5113113;28;20217;-79
2022/11/19 05:58:43;;;;;;;3.83;2.30;;;5.30;99.90;;;;;;5113750;28;20211;-78
2022/11/19 06:01:24;;;;;;;3.57;2.43;;;5.30;99.90;;;;;;5114048;28;20204;-79
2022/11/19 06:03:52;;;;;;;4.50;2.33;;;5.40;99.90;;;;;;5113362;28;20198;-76
2022/11/19 06:06:23;;;;;;;3.33;2.30;;;5.40;99.90;;;;;;5115997;28;20296;-79
2022/11/19 06:08:51;;;;;;;4.70;2.30;;;5.30;99.90;;;;;;5117686;27;20209;-77
2022/11/19 06:14:07;;;;;;;4.40;2.50;;;5.30;99.90;;;;;;5118337;28;20190;-77
2022/11/19 06:16:35;;;;;;;4.27;2.30;;;5.30;99.90;;;;;;5127045;27;20212;-78
2022/11/19 06:19:04;;;;;;;3.80;2.20;;;5.30;99.90;;;;;;5118999;27;20210;-77
2022/11/19 06:21:33;;;;;;;3.53;2.10;;;5.30;99.90;;;;;;5120156;28;20291;-77
2022/11/19 06:24:01;;;;;;;2.43;2.10;;;5.30;99.90;;;;;;5117831;28;20210;-75
2022/11/19 06:26:31;;;;;;;3.43;2.37;;;5.30;99.90;;;;;;5118946;28;20310;-80
2022/11/19 06:29:02;;;;;;;3.53;2.10;;;5.40;99.90;;;;;;5118525;28;20213;-78
2022/11/19 06:31:30;;;;;;;3.17;2.00;;;5.30;99.90;;;;;;5118340;28;20205;-79
2022/11/19 06:33:58;;;;;;;3.57;2.10;;;5.30;99.90;;;;;;5117042;28;20202;-79
2022/11/19 06:36:29;;;;;;;2.23;2.03;;;5.30;99.90;;;;;;5117166;28;20206;-79
2022/11/19 06:39:08;;;;;;;3.47;2.00;;;5.30;99.90;;;;;;5131399;27;20213;-79
2022/11/19 06:41:39;;;;;;;3.67;2.20;;;5.40;99.90;;;;;;5137011;27;20288;-78
2022/11/19 06:44:07;;;;;;;4.07;2.20;;;5.40;99.90;;;;;;5136939;27;20205;-77
2022/11/19 06:46:35;;;;;;;2.13;1.80;;;5.40;99.90;;;;;;5136775;27;20206;-77
2022/11/19 06:49:04;;;;;;;2.90;2.23;;;5.40;99.90;;;;;;5136787;27;20216;-77
2022/11/19 06:51:35;;;;;;;3.57;1.80;;;5.40;99.90;;;;;;5136538;27;20618;-80
2022/11/19 06:54:03;;;;;;;3.50;1.90;;;5.50;99.90;;;;;;5135833;27;20683;-77
2022/11/19 06:56:34;;;;;;;4.03;2.43;;;5.40;99.90;;;;;;5136491;27;20205;-79
2022/11/19 06:59:06;;;;;;;3.70;2.13;;;5.50;99.90;;;;;;5136490;27;20208;-80
2022/11/19 07:01:35;;;;;;;4.93;2.30;;;5.40;99.90;;;;;;5136422;27;20193;-78
2022/11/19 07:04:04;;;;;;;3.87;2.20;;;5.40;99.90;;;;;;5135253;27;20242;-78
2022/11/19 07:06:33;;;;;;;3.73;2.10;;;5.50;99.90;;;;;;5137495;27;20206;-75
2022/11/19 07:09:01;;;;;;;2.40;2.00;;;5.50;99.90;;;;;;5137885;27;20209;-79
2022/11/19 07:11:32;;;;;;;3.17;2.07;;;5.50;99.90;;;;;;5137516;27;20220;-80
2022/11/19 07:14:01;;;;;;;2.67;2.00;;;5.60;99.90;;;;;;5136134;27;20218;-78
2022/11/19 07:16:33;;;;;;;2.03;1.83;;;5.50;99.90;;;;;;5136401;27;20225;-77
2022/11/19 07:19:02;;;;;;;2.07;1.80;;;5.50;99.90;;;;;;5136769;27;20201;-80
2022/11/19 07:21:32;;;;;;;2.07;1.83;;;5.60;99.90;;;;;;5135826;27;20659;-77
2022/11/19 07:24:02;;;;;;;3.40;2.30;;;5.70;99.90;;;;;;5132852;27;20240;-77
2022/11/19 07:26:31;;;;;;;3.53;2.67;;;5.80;99.90;;;;;;5136047;27;20205;-77
2022/11/19 07:29:00;;;;;;;2.47;2.07;;;5.90;99.90;;;;;;5136930;27;20742;-75
2022/11/19 07:31:34;;;;;;;1.90;1.70;;;5.80;99.90;;;;;;5143926;27;20736;-77
2022/11/19 07:34:06;;;;;;;2.27;2.00;;;5.80;99.90;;;;;;5144344;27;20190;-75
2022/11/19 07:36:34;;;;;;;2.80;2.03;;;5.90;99.90;;;;;;5138989;27;20196;-76
2022/11/19 07:39:08;;;;;;;2.07;1.60;;;5.90;99.90;;;;;;5139656;27;20546;-78
2022/11/19 07:44:22;;;;;;;1.70;1.60;;;5.90;99.90;;;;;;5120869;27;20209;-77
2022/11/19 07:46:51;;;;;;;2.90;1.83;;;6.00;99.90;;;;;;5113682;28;20592;-76
2022/11/19 07:49:20;;;;;;;2.83;1.93;;;6.00;99.90;;;;;;5113500;27;20212;-78
2022/11/19 07:51:51;;;;;;;3.40;1.90;;;6.10;99.90;;;;;;5113342;27;20605;-77
2022/11/19 07:54:19;;;;;;;2.73;2.00;;;6.10;99.90;;;;;;5113595;28;20218;-78
2022/11/19 07:56:50;;;;;;;2.87;1.80;;;6.20;99.90;;;;;;5113846;28;20588;-80
2022/11/19 07:59:18;;;;;;;1.40;1.30;;;6.30;99.90;;;;;;5114259;28;20296;-78
2022/11/19 08:01:51;;;;;;;1.30;1.20;;;6.40;99.90;;;;;;5113318;27;20230;-75
2022/11/19 08:04:20;;;;;;;3.30;1.50;;;6.50;99.90;;;;;;5113577;27;20221;-78
2022/11/19 08:06:48;;;;;;;2.90;2.20;;;6.60;99.90;;;;;;5114150;28;20210;-77
2022/11/19 08:09:19;;;;;;;4.83;2.30;;;6.80;99.90;;;;;;5123514;27;20210;-74
2022/11/19 08:11:48;;;;;;;2.80;2.50;;;6.80;99.90;;;;;;5120608;27;20204;-73
2022/11/19 08:14:16;;;;;;;2.70;2.20;;;6.80;99.90;;;;;;5133965;27;20223;-75
2022/11/19 08:19:31;;;;;;;3.23;2.43;;;6.90;99.90;;;;;;5115013;27;20206;-75
2022/11/19 08:21:59;;;;;;;2.83;2.40;;;7.00;99.90;;;;;;5115511;28;20766;-75
2022/11/19 08:24:27;;;;;;;4.07;2.70;;;6.90;99.90;;;;;;5124993;27;20222;-74
2022/11/19 08:26:57;;;;;;;5.13;2.97;;;7.00;99.90;;;;;;5134800;28;20212;-77
2022/11/19 08:29:26;;;;;;;3.57;2.50;;;7.10;99.90;;;;;;5117860;28;20429;-74
2022/11/19 08:31:56;;;;;;;2.47;2.03;;;7.20;99.90;;;;;;5114035;28;20502;-74
2022/11/19 08:34:27;;;;;;;1.97;1.60;;;7.30;99.90;;;;;;5114549;28;20298;-73
2022/11/19 08:36:56;;;;;;;3.47;2.00;;;7.60;99.90;;;;;;5118917;27;20763;-76
2022/11/19 08:39:25;;;;;;;3.07;1.93;;;7.70;99.90;;;;;;5113303;27;20248;-77
2022/11/19 08:44:40;;;;;;;2.57;1.70;;;8.00;99.90;;;;;;5108146;27;20233;-77
2022/11/19 08:47:08;;;;;;;1.60;1.50;;;8.30;99.90;;;;;;5117223;27;20202;-74
2022/11/19 08:49:36;;;;;;;3.27;1.90;;;8.50;99.90;;;;;;5113098;28;20206;-74
2022/11/19 08:52:06;;;;;;;1.20;1.10;;;8.80;99.90;;;;;;5121352;27;20258;-74
2022/11/19 08:54:35;;;;;;;2.07;1.30;;;9.00;99.90;;;;;;5113202;27;20205;-74
2022/11/19 08:57:06;;;;;;;1.83;1.07;;;9.00;99.90;;;;;;5124903;27;20198;-77
2022/11/19 08:59:34;;;;;;;1.33;1.07;;;8.90;99.90;;;;;;5113642;28;20683;-76
2022/11/19 09:02:02;;;;;;;3.43;3.00;;;8.80;99.90;;;;;;5113391;28;20682;-76
2022/11/19 09:04:30;;;;;;;2.80;2.50;;;8.60;99.90;;;;;;5113633;28;20230;-76
2022/11/19 09:07:01;;;;;;;1.87;1.40;;;8.60;99.90;;;;;;5113664;28;20187;-77
2022/11/19 09:09:33;;;;;;;3.13;1.70;;;8.40;99.90;;;;;;5113598;28;20218;-76
2022/11/19 09:12:01;;;;;;;1.70;1.30;;;8.40;99.90;;;;;;5121967;27;20225;-76
2022/11/19 09:14:32;;;;;;;1.30;1.20;;;8.20;99.90;;;;;;5133011;27;20218;-79
2022/11/19 09:17:00;;;;;;;1.40;1.30;;;8.30;99.90;;;;;;5132756;27;20206;-78
2022/11/19 09:19:29;;;;;;;2.57;1.40;;;8.40;99.90;;;;;;5133580;27;20202;-75
2022/11/19 09:21:57;;;;;;;1.97;1.40;;;8.60;99.90;;;;;;5132053;27;20228;-75
2022/11/19 09:24:25;;;;;;;1.97;1.03;;;8.60;99.90;;;;;;5133302;27;20571;-76
2022/11/19 09:26:55;;;;;;;2.23;1.67;;;8.60;99.90;;;;;;5131357;27;20206;-77
2022/11/19 09:29:29;;;;;;;2.93;1.80;;;8.60;99.90;;;;;;5112970;28;20636;-78
2022/11/19 09:31:57;;;;;;;2.30;1.00;;;8.40;99.90;;;;;;5112713;28;20210;-74
2022/11/19 09:34:25;;;;;;;1.23;1.13;;;8.30;99.90;;;;;;5128200;27;20280;-77
2022/11/19 09:37:00;;;;;;;1.67;1.30;;;8.20;99.90;;;;;;5135672;27;20643;-74
2022/11/19 09:39:30;;;;;;;1.00;1.00;;;8.30;99.90;;;;;;5130930;27;20266;-76
2022/11/19 09:42:13;;;;;;;1.47;1.20;;;8.10;99.90;;;;;;5133014;27;20209;-76
2022/11/19 09:45:02;;;;;;;1.40;1.30;;;8.10;99.90;;;;;;5133521;27;20206;-78
2022/11/19 09:47:43;;;;;;;2.67;1.33;;;8.00;99.90;;;;;;5133115;27;20230;-77
2022/11/19 09:50:17;;;;;;;1.53;1.30;;;8.20;99.90;;;;;;5133195;27;20213;-77
2022/11/19 09:52:48;;;;;;;1.43;1.33;;;8.10;99.90;;;;;;5133203;27;20213;-79
2022/11/19 09:55:20;;;;;;;2.47;1.37;;;8.00;99.90;;;;;;5120984;28;20675;-78
2022/11/19 09:57:53;;;;;;;3.00;1.40;;;7.80;99.90;;;;;;5112936;28;20629;-77
2022/11/19 10:00:24;;;;;;;1.50;1.30;;;7.60;99.90;;;;;;5113973;27;20205;-78
2022/11/19 10:02:53;;;;;;;1.50;1.40;;;7.70;99.90;;;;;;5113499;28;20273;-76
2022/11/19 10:05:30;;;;;;;2.03;1.57;;;7.70;99.90;;;;;;5113171;28;20234;-76
2022/11/19 10:08:12;;;;;;;1.80;1.50;;;7.90;99.90;;;;;;5114624;28;20209;-78
2022/11/19 10:10:42;;;;;;;3.43;1.60;;;8.00;99.90;;;;;;5111593;28;20285;-77
2022/11/19 10:13:27;;;;;;;1.77;1.50;;;8.20;99.90;;;;;;5111724;28;20226;-74
2022/11/19 10:16:14;;;;;;;1.30;1.20;;;8.30;99.90;;;;;;5111933;28;20194;-77
2022/11/19 10:18:53;;;;;;;2.40;1.73;;;8.20;99.90;;;;;;5112400;28;20220;-75
2022/11/19 10:21:27;;;;;;;2.67;1.63;;;8.20;99.90;;;;;;5111884;28;20198;-78
2022/11/19 10:24:06;;;;;;;2.60;1.70;;;7.90;99.90;;;;;;5111430;28;20206;-80
2022/11/19 10:26:39;;;;;;;2.00;1.40;;;7.90;99.90;;;;;;5111642;27;20206;-76
2022/11/19 10:29:15;;;;;;;3.93;2.40;;;7.90;99.90;;;;;;5110975;27;20210;-76
2022/11/19 10:31:48;;;;;;;2.97;2.13;;;7.70;99.90;;;;;;5111216;28;20197;-76
2022/11/19 10:34:25;;;;;;;2.20;1.60;;;7.60;99.90;;;;;;5111879;28;20210;-75
2022/11/19 10:36:58;;;;;;;4.17;2.07;;;7.50;99.90;;;;;;5111867;28;20582;-75
2022/11/19 10:39:35;;;;;;;2.17;1.97;;;7.50;99.90;;;;;;5110224;27;20210;-79
2022/11/19 10:42:09;;;;;;;3.70;2.10;;;7.40;99.90;;;;;;5111542;28;20214;-77
2022/11/19 10:44:44;;;;;;;3.40;2.10;;;7.30;99.90;;;;;;5111472;28;20231;-79
2022/11/19 10:47:18;;;;;;;3.13;2.30;;;7.20;99.90;;;;;;5112701;28;20197;-77
2022/11/19 10:49:55;;;;;;;3.70;2.93;;;7.10;99.90;;;;;;5111940;28;20209;-77
2022/11/19 10:52:29;;;;;;;3.17;2.43;;;7.00;99.90;;;;;;5114202;28;20296;-78
2022/11/19 10:55:05;;;;;;;2.33;2.13;;;6.90;99.90;;;;;;5115044;27;20204;-78
2022/11/19 10:57:35;;;;;;;3.40;2.23;;;6.80;99.90;;;;;;5115352;28;20197;-79
2022/11/19 11:00:09;;;;;;;2.53;2.10;;;6.80;99.90;;;;;;5114563;27;20209;-79
2022/11/19 11:02:46;;;;;;;1.93;1.60;;;6.60;99.90;;;;;;5114272;28;20621;-77
2022/11/19 11:05:20;;;;;;;2.30;1.90;;;6.60;99.90;;;;;;5115187;28;20318;-79
2022/11/19 11:07:50;;;;;;;3.97;2.50;;;6.70;99.90;;;;;;5115144;28;20186;-79
2022/11/19 11:10:28;;;;;;;4.13;2.33;;;6.70;99.90;;;;;;5120625;27;20209;-76
2022/11/19 11:15:54;;;;;;;3.10;1.70;;;6.80;99.90;;;;;;5114111;27;20206;-79
2022/11/19 11:18:27;;;;;;;2.67;1.90;;;7.00;99.90;;;;;;5114639;28;20297;-79
2022/11/19 11:21:00;;;;;;;2.37;1.57;;;7.00;99.90;;;;;;5116080;28;20555;-79
2022/11/19 11:23:30;;;;;;;2.43;1.70;;;7.20;99.90;;;;;;5115426;28;20210;-74
2022/11/19 11:26:05;;;;;;;1.83;1.53;;;7.20;99.90;;;;;;5131196;27;20235;-77
2022/11/19 11:28:34;;;;;;;1.80;1.60;;;7.20;99.90;;;;;;5121366;27;20225;-76
2022/11/19 11:31:09;;;;;;;2.67;1.83;;;7.10;99.90;;;;;;5118993;27;20538;-75
2022/11/19 11:33:40;;;;;;;5.50;2.00;;;7.30;99.90;;;;;;5135265;27;20530;-77
2022/11/19 11:36:11;;;;;;;4.43;1.80;;;7.20;99.90;;;;;;5133998;27;20212;-77
2022/11/19 11:38:42;;;;;;;3.40;1.83;;;7.20;99.90;;;;;;5124530;27;20198;-78
2022/11/19 11:41:13;;;;;;;2.10;1.70;;;7.10;99.90;;;;;;5124913;27;20236;-77
2022/11/19 11:44:04;;;;;;;3.50;2.20;;;7.10;99.90;;;;;;5114208;28;20716;-77
2022/11/19 11:46:41;;;;;;;5.77;2.43;;;7.20;99.90;;;;;;5115327;28;20301;-75
2022/11/19 11:49:28;;;;;;;4.60;2.40;;;7.30;99.90;;;;;;5115772;28;20265;-79
2022/11/19 11:52:16;;;;;;;7.03;4.23;;;7.30;99.90;;;;;;5129399;27;20206;-73
2022/11/19 11:55:00;;;;;;;5.57;3.93;;;7.30;99.90;;;;;;5112571;27;20186;-77
2022/11/19 11:57:30;;;;;;;2.40;1.90;;;7.50;99.90;;;;;;5117054;27;20754;-76
2022/11/19 11:59:59;;;;;;;1.90;1.20;;;7.60;99.90;;;;;;5119594;27;20290;-77
2022/11/19 12:02:36;;;;;;;2.30;1.57;;;7.60;99.90;;;;;;5115560;27;20293;-74
2022/11/19 12:05:10;;;;;;;2.17;1.60;;;7.60;99.90;;;;;;5115280;27;20213;-77
2022/11/19 12:08:02;;;;;;;2.70;1.40;;;7.60;99.90;;;;;;5114074;28;20289;-78
2022/11/19 12:10:47;;;;;;;3.73;1.50;;;7.90;99.90;;;;;;5113802;28;20239;-76
2022/11/19 12:13:54;;;;;;;3.10;1.90;;;8.20;99.90;;;;;;5113343;28;20791;-75
2022/11/19 12:16:36;;;;;;;3.03;1.63;;;8.50;99.90;;;;;;5117607;28;20277;-76
2022/11/19 12:19:27;;;;;;;2.87;1.80;;;8.90;99.90;;;;;;5120286;28;20187;-76
2022/11/19 12:22:03;;;;;;;1.77;1.60;;;9.10;99.90;;;;;;5115635;28;20190;-77
2022/11/19 12:24:58;;;;;;;5.13;1.73;;;9.00;99.90;;;;;;5095833;27;20233;-73
2022/11/19 12:27:34;;;;;;;1.43;1.30;;;9.10;99.90;;;;;;5113235;28;20190;-75
2022/11/19 12:30:09;;;;;;;1.63;1.00;;;8.90;99.90;;;;;;5125409;27;20212;-79
2022/11/19 12:32:52;;;;;;;1.73;1.20;;;9.00;99.90;;;;;;5134104;27;20193;-78
2022/11/19 12:35:36;;;;;;;1.63;1.30;;;8.90;99.90;;;;;;5129122;27;20197;-76
2022/11/19 12:38:24;;;;;;;2.03;1.20;;;8.90;99.90;;;;;;5096605;27;20280;-79
2022/11/19 12:41:02;;;;;;;1.77;1.40;;;8.60;99.90;;;;;;5112791;28;20193;-79
2022/11/19 12:43:51;;;;;;;2.33;1.40;;;8.60;99.90;;;;;;5113662;28;20555;-76
2022/11/19 12:46:29;;;;;;;1.67;1.30;;;8.40;99.90;;;;;;5112434;28;20234;-75
2022/11/19 12:49:15;;;;;;;2.13;1.20;;;8.40;99.90;;;;;;5112553;28;20206;-78
2022/11/19 12:51:57;;;;;;;1.40;1.30;;;8.40;99.90;;;;;;5112671;28;20194;-77
2022/11/19 12:54:40;;;;;;;1.93;1.40;;;8.70;99.90;;;;;;5129055;27;20205;-77
2022/11/19 12:57:33;;;;;;;2.10;1.23;;;9.10;99.90;;;;;;5133049;27;20210;-78
2022/11/19 13:00:11;;;;;;;1.50;1.10;;;9.10;99.90;;;;;;5133472;27;20201;-79
2022/11/19 13:02:48;;;;;;;2.20;1.23;;;9.10;99.90;;;;;;5133385;27;20200;-77
2022/11/19 13:05:23;;;;;;;2.10;1.30;;;9.00;99.90;;;;;;5133928;27;20210;-79
2022/11/19 13:08:06;;;;;;;1.83;1.20;;;9.00;99.90;;;;;;5133246;27;20205;-78
2022/11/19 13:10:40;;;;;;;1.43;1.17;;;9.20;99.90;;;;;;5134077;27;20201;-79
2022/11/19 13:13:13;;;;;;;2.10;1.10;;;9.40;99.90;;;;;;5132727;27;20232;-79
2022/11/19 13:15:48;;;;;;;1.43;1.10;;;9.50;99.90;;;;;;5133617;27;20196;-80
2022/11/19 13:18:21;;;;;;;1.80;1.07;;;9.40;99.90;;;;;;5133076;27;20205;-77
2022/11/19 13:20:53;;;;;;;2.03;1.07;;;9.20;99.90;;;;;;5125993;27;20198;-78
2022/11/19 13:23:26;;;;;;;2.40;1.10;;;9.00;99.90;;;;;;5112905;28;20277;-79
2022/11/19 13:25:58;;;;;;;2.00;1.20;;;8.70;99.90;;;;;;5113288;27;20560;-78
2022/11/19 13:28:39;;;;;;;3.53;1.10;;;8.60;99.90;;;;;;5128651;27;20235;-80
2022/11/19 13:31:16;;;;;;;2.63;1.20;;;8.40;99.90;;;;;;5133209;27;20236;-78
2022/11/19 13:33:50;;;;;;;3.30;1.73;;;8.50;99.90;;;;;;5110574;27;20312;-76
2022/11/19 13:36:24;;;;;;;1.27;1.17;;;8.50;99.90;;;;;;5108462;28;20204;-73
2022/11/19 13:38:58;;;;;;;0.87;0.87;;;8.20;99.90;;;;;;5114264;28;20570;-78
2022/11/19 13:41:30;;;;;;;2.80;1.13;;;8.20;99.90;;;;;;5118113;28;20340;-77
2022/11/19 13:46:53;;;;;;;2.40;1.00;;;8.30;99.90;;;;;;5117311;28;20618;-76
2022/11/19 13:49:30;;;;;;;1.13;1.03;;;8.20;99.90;;;;;;5116343;28;20202;-80
2022/11/19 13:52:03;;;;;;;1.93;1.00;;;8.10;99.90;;;;;;5111980;28;20290;-80
2022/11/19 13:54:38;;;;;;;2.50;0.90;;;8.10;99.90;;;;;;5112094;28;20229;-78
2022/11/19 13:57:09;;;;;;;1.30;1.20;;;7.90;99.90;;;;;;5112760;28;20581;-78
2022/11/19 13:59:45;;;;;;;2.63;1.30;;;7.80;99.90;;;;;;5113250;28;20316;-79